Time;durP1;ratioP1;P1;durP2;ratioP2;P2;SDS_P1;SDS_P2;PMS_P1;PMS_P2;Temp;Humidity;BMP_temperature;BMP_pressure;BME280_temperature;BME280_humidity;BME280_pressure;Samples;Min_cycle;Max_cycle;Signal;HPM_P1;HPM_P2
2021/06/29 00:02:09;;;;;;;8.90;7.10;;;;;;;;;;5097192;28;20456;-53
2021/06/29 00:04:36;;;;;;;8.87;6.00;;;;;;;;;;5097328;28;20467;-57
2021/06/29 00:07:05;;;;;;;6.93;4.87;;;;;;;;;;5097128;28;20433;-54
2021/06/29 00:09:33;;;;;;;8.67;5.63;;;;;;;;;;5097074;28;20531;-49
2021/06/29 00:12:00;;;;;;;18.17;15.57;;;;;;;;;;5096320;28;20529;-57
2021/06/29 00:14:29;;;;;;;8.43;5.00;;;;;;;;;;5097015;28;20452;-56
2021/06/29 00:16:56;;;;;;;8.83;5.87;;;;;;;;;;5096703;28;20471;-58
2021/06/29 00:19:24;;;;;;;15.60;13.13;;;;;;;;;;5108382;28;20511;-56
2021/06/29 00:22:01;;;;;;;9.10;6.13;;;;;;;;;;5098128;28;20442;-51
2021/06/29 00:24:28;;;;;;;7.17;5.80;;;;;;;;;;5096964;28;20483;-53
2021/06/29 00:26:56;;;;;;;8.77;5.47;;;;;;;;;;5113413;28;20455;-57
2021/06/29 00:29:33;;;;;;;8.73;6.20;;;;;;;;;;5115387;28;20451;-54
2021/06/29 00:32:00;;;;;;;7.23;4.70;;;;;;;;;;5096712;28;20763;-53
2021/06/29 00:34:28;;;;;;;9.50;5.57;;;;;;;;;;5095859;28;20470;-59
2021/06/29 00:37:14;;;;;;;8.13;5.40;;;;;;;;;;5096116;28;20448;-56
2021/06/29 00:39:41;;;;;;;11.03;7.43;;;;;;;;;;5095921;28;20490;-60
2021/06/29 00:42:09;;;;;;;13.63;10.90;;;;;;;;;;5095672;28;20519;-57
2021/06/29 00:44:40;;;;;;;12.77;8.10;;;;;;;;;;5096015;28;20448;-55
2021/06/29 00:47:10;;;;;;;7.63;5.93;;;;;;;;;;5096507;28;20457;-55
2021/06/29 00:49:38;;;;;;;45.23;32.53;;;;;;;;;;5082257;28;20449;-57
2021/06/29 00:52:12;;;;;;;18.67;13.33;;;;;;;;;;5075830;28;20464;-54
2021/06/29 00:54:39;;;;;;;31.80;20.00;;;;;;;;;;5075447;28;20521;-58
2021/06/29 00:57:09;;;;;;;16.13;8.70;;;;;;;;;;5075050;28;20519;-61
2021/06/29 01:02:41;;;;;;;18.47;10.07;;;;;;;;;;5074966;28;20415;-55
2021/06/29 01:05:09;;;;;;;11.20;8.40;;;;;;;;;;5075629;28;20508;-55
2021/06/29 01:07:37;;;;;;;21.87;13.77;;;;;;;;;;5074993;28;20504;-54
2021/06/29 01:10:05;;;;;;;17.90;12.60;;;;;;;;;;5074646;28;20460;-60
2021/06/29 01:12:32;;;;;;;29.07;20.20;;;;;;;;;;5075189;28;20441;-56
2021/06/29 01:15:08;;;;;;;25.97;15.23;;;;;;;;;;5074690;28;20455;-61
2021/06/29 01:17:35;;;;;;;30.03;18.93;;;;;;;;;;5075428;28;20463;-53
2021/06/29 01:20:07;;;;;;;25.23;16.43;;;;;;;;;;5074919;28;20463;-57
2021/06/29 01:22:59;;;;;;;34.30;16.47;;;;;;;;;;5075527;28;20461;-57
2021/06/29 01:25:29;;;;;;;11.07;8.60;;;;;;;;;;5068069;28;20464;-58
2021/06/29 01:28:06;;;;;;;14.57;8.40;;;;;;;;;;5076077;28;20493;-62
2021/06/29 01:31:00;;;;;;;23.80;14.57;;;;;;;;;;5075644;28;20472;-57
2021/06/29 01:33:28;;;;;;;18.70;11.30;;;;;;;;;;5075460;28;20521;-56
2021/06/29 01:35:57;;;;;;;16.73;9.60;;;;;;;;;;5075130;28;20516;-57
2021/06/29 01:38:25;;;;;;;21.60;12.90;;;;;;;;;;5074382;28;20441;-53
2021/06/29 01:40:52;;;;;;;12.10;8.37;;;;;;;;;;5075288;28;20512;-58
2021/06/29 01:43:23;;;;;;;21.07;11.47;;;;;;;;;;5074422;28;20452;-55
2021/06/29 01:45:54;;;;;;;11.50;8.07;;;;;;;;;;5074363;28;20445;-54
2021/06/29 01:48:23;;;;;;;7.90;6.80;;;;;;;;;;5074061;28;20556;-56
2021/06/29 01:50:51;;;;;;;13.60;8.43;;;;;;;;;;5073734;28;20477;-58
2021/06/29 01:53:25;;;;;;;11.97;7.63;;;;;;;;;;5073338;28;20524;-55
2021/06/29 01:55:52;;;;;;;10.37;8.70;;;;;;;;;;5074331;28;20476;-57
2021/06/29 01:58:24;;;;;;;24.10;20.07;;;;;;;;;;5073821;28;20593;-53
2021/06/29 02:01:11;;;;;;;10.07;7.23;;;;;;;;;;5074310;28;20437;-56
2021/06/29 02:03:39;;;;;;;9.90;7.23;;;;;;;;;;5074111;28;20451;-58
2021/06/29 02:06:06;;;;;;;12.60;5.80;;;;;;;;;;5081502;28;20879;-58
2021/06/29 02:08:55;;;;;;;19.30;13.37;;;;;;;;;;5094075;28;20550;-57
2021/06/29 02:11:24;;;;;;;8.37;5.60;;;;;;;;;;5093828;28;20456;-59
2021/06/29 02:13:51;;;;;;;8.90;4.63;;;;;;;;;;5087778;28;20528;-59
2021/06/29 02:16:19;;;;;;;7.70;6.33;;;;;;;;;;5086271;28;20479;-56
2021/06/29 02:18:47;;;;;;;7.43;5.50;;;;;;;;;;5094474;28;20495;-57
2021/06/29 02:21:21;;;;;;;10.03;6.47;;;;;;;;;;5097485;28;20452;-54
2021/06/29 02:23:54;;;;;;;9.53;6.10;;;;;;;;;;5080261;28;20464;-53
2021/06/29 02:26:22;;;;;;;8.97;6.37;;;;;;;;;;5074645;28;20492;-52
2021/06/29 02:28:58;;;;;;;8.17;5.27;;;;;;;;;;5074447;28;20501;-53
2021/06/29 02:31:26;;;;;;;10.30;5.73;;;;;;;;;;5073339;28;20500;-53
2021/06/29 02:33:53;;;;;;;9.70;6.50;;;;;;;;;;5087118;28;20755;-52
2021/06/29 02:36:28;;;;;;;7.53;5.53;;;;;;;;;;5093553;28;20479;-50
2021/06/29 02:38:55;;;;;;;11.77;5.10;;;;;;;;;;5093710;28;20485;-56
2021/06/29 02:41:24;;;;;;;6.50;5.00;;;;;;;;;;5093697;28;20519;-54
2021/06/29 02:43:51;;;;;;;8.70;5.20;;;;;;;;;;5093360;28;20484;-55
2021/06/29 02:46:20;;;;;;;12.13;6.13;;;;;;;;;;5093803;28;20482;-59
2021/06/29 02:48:52;;;;;;;12.50;9.30;;;;;;;;;;5094049;28;20717;-58
2021/06/29 02:51:20;;;;;;;11.90;8.80;;;;;;;;;;5096443;28;20467;-52
2021/06/29 02:53:47;;;;;;;8.97;4.57;;;;;;;;;;5097946;28;20448;-57
2021/06/29 02:59:10;;;;;;;6.67;4.67;;;;;;;;;;5096315;28;20458;-52
2021/06/29 03:01:46;;;;;;;6.07;3.90;;;;;;;;;;5097361;28;20447;-56
2021/06/29 03:04:14;;;;;;;5.37;3.20;;;;;;;;;;5097090;28;20459;-56
2021/06/29 03:06:48;;;;;;;4.80;3.63;;;;;;;;;;5097844;28;20466;-62
2021/06/29 03:09:49;;;;;;;7.50;3.87;;;;;;;;;;5097027;28;20494;-53
2021/06/29 03:12:16;;;;;;;6.43;4.07;;;;;;;;;;5097121;28;20456;-58
2021/06/29 03:14:43;;;;;;;10.50;3.67;;;;;;;;;;5097477;28;20495;-61
2021/06/29 03:17:12;;;;;;;5.93;3.67;;;;;;;;;;5097350;28;20456;-57
2021/06/29 03:19:40;;;;;;;6.97;4.27;;;;;;;;;;5087777;28;20498;-61
2021/06/29 03:22:07;;;;;;;7.23;4.37;;;;;;;;;;5076986;28;20434;-59
2021/06/29 03:24:35;;;;;;;6.73;4.83;;;;;;;;;;5076795;28;20459;-57
2021/06/29 03:27:03;;;;;;;9.43;5.57;;;;;;;;;;5077210;28;20484;-56
2021/06/29 03:29:30;;;;;;;9.70;5.00;;;;;;;;;;5076977;28;20544;-56
2021/06/29 03:32:16;;;;;;;7.03;5.07;;;;;;;;;;5077009;28;20475;-57
2021/06/29 03:34:44;;;;;;;10.23;5.23;;;;;;;;;;5090312;28;20496;-56
2021/06/29 03:37:13;;;;;;;7.47;4.70;;;;;;;;;;5097233;28;20480;-57
2021/06/29 03:39:48;;;;;;;6.20;3.97;;;;;;;;;;5096964;28;20536;-55
2021/06/29 03:42:16;;;;;;;5.67;3.80;;;;;;;;;;5097666;28;20446;-58
2021/06/29 03:44:44;;;;;;;7.13;3.60;;;;;;;;;;5096355;28;20518;-60
2021/06/29 03:47:22;;;;;;;6.63;3.33;;;;;;;;;;5088383;28;20453;-59
2021/06/29 03:49:50;;;;;;;10.20;3.67;;;;;;;;;;5089629;28;20472;-57
2021/06/29 03:52:17;;;;;;;6.93;3.80;;;;;;;;;;5079716;28;20512;-56
2021/06/29 03:54:45;;;;;;;7.00;4.07;;;;;;;;;;5083790;28;20496;-56
2021/06/29 03:57:12;;;;;;;8.23;4.10;;;;;;;;;;5090430;28;20663;-58
2021/06/29 03:59:40;;;;;;;8.43;5.00;;;;;;;;;;5087529;28;20463;-60
2021/06/29 04:02:08;;;;;;;9.20;4.50;;;;;;;;;;5089207;28;20460;-57
2021/06/29 04:04:37;;;;;;;6.57;3.30;;;;;;;;;;5081244;28;20462;-54
2021/06/29 04:07:09;;;;;;;7.63;4.60;;;;;;;;;;5086701;28;20472;-57
2021/06/29 04:09:38;;;;;;;5.63;3.90;;;;;;;;;;5087999;28;20528;-55
2021/06/29 04:12:06;;;;;;;6.17;4.00;;;;;;;;;;5096518;28;20587;-55
2021/06/29 04:14:40;;;;;;;17.50;5.17;;;;;;;;;;5085913;28;20472;-55
2021/06/29 04:17:07;;;;;;;8.00;4.27;;;;;;;;;;5096162;28;20459;-52
2021/06/29 04:19:35;;;;;;;6.23;3.77;;;;;;;;;;5078202;28;20472;-60
2021/06/29 04:22:22;;;;;;;7.13;4.40;;;;;;;;;;5093073;28;20476;-52
2021/06/29 04:24:51;;;;;;;7.93;4.80;;;;;;;;;;5083109;28;20476;-63
2021/06/29 04:27:22;;;;;;;6.80;4.30;;;;;;;;;;5085880;28;20475;-58
2021/06/29 04:30:09;;;;;;;6.03;4.43;;;;;;;;;;5091624;28;20531;-59
2021/06/29 04:32:36;;;;;;;8.50;5.57;;;;;;;;;;5087795;28;20501;-60
2021/06/29 04:35:04;;;;;;;7.40;5.40;;;;;;;;;;5084803;28;20516;-57
2021/06/29 04:37:44;;;;;;;7.00;5.20;;;;;;;;;;5088725;28;20464;-59
2021/06/29 04:40:14;;;;;;;8.50;4.70;;;;;;;;;;5083603;28;20683;-57
2021/06/29 04:42:43;;;;;;;8.60;5.57;;;;;;;;;;5087160;28;20496;-59
2021/06/29 04:45:44;;;;;;;6.23;5.13;;;;;;;;;;5080838;28;20460;-55
2021/06/29 04:48:23;;;;;;;8.17;4.93;;;;;;;;;;5082414;28;20460;-54
2021/06/29 04:51:15;;;;;;;6.87;5.83;;;;;;;;;;5085911;28;20492;-54
2021/06/29 04:53:43;;;;;;;7.87;5.37;;;;;;;;;;5079447;28;20465;-58
2021/06/29 04:56:19;;;;;;;7.00;5.07;;;;;;;;;;5089388;28;20456;-60
2021/06/29 04:59:17;;;;;;;7.50;5.10;;;;;;;;;;5096365;28;20503;-56
2021/06/29 05:01:45;;;;;;;8.20;5.60;;;;;;;;;;5094946;28;20485;-57
2021/06/29 05:04:13;;;;;;;7.50;5.37;;;;;;;;;;5096296;28;20442;-55
2021/06/29 05:06:41;;;;;;;7.97;4.90;;;;;;;;;;5095761;28;20455;-58
2021/06/29 05:09:08;;;;;;;7.53;4.93;;;;;;;;;;5096102;28;20495;-59
2021/06/29 05:11:43;;;;;;;10.50;5.07;;;;;;;;;;5096423;28;20436;-54
2021/06/29 05:14:11;;;;;;;7.83;6.00;;;;;;;;;;5094579;28;20463;-60
2021/06/29 05:16:38;;;;;;;7.47;5.87;;;;;;;;;;5095617;28;20460;-56
2021/06/29 05:19:29;;;;;;;9.03;5.97;;;;;;;;;;5095743;28;20452;-56
2021/06/29 05:22:03;;;;;;;9.10;7.03;;;;;;;;;;5095134;28;20468;-59
2021/06/29 05:24:31;;;;;;;10.40;5.97;;;;;;;;;;5095386;28;20463;-57
2021/06/29 05:27:05;;;;;;;10.00;5.53;;;;;;;;;;5075968;28;20635;-58
2021/06/29 05:29:35;;;;;;;8.57;4.73;;;;;;;;;;5091160;28;20510;-53
2021/06/29 05:32:22;;;;;;;9.17;4.07;;;;;;;;;;5094504;28;20467;-58
2021/06/29 05:35:01;;;;;;;5.67;3.60;;;;;;;;;;5075931;28;20464;-52
2021/06/29 05:37:30;;;;;;;9.30;4.53;;;;;;;;;;5084605;28;20494;-55
2021/06/29 05:40:00;;;;;;;7.27;3.30;;;;;;;;;;5095693;28;20434;-49
2021/06/29 05:42:28;;;;;;;6.90;3.60;;;;;;;;;;5095860;28;20432;-54
2021/06/29 05:44:56;;;;;;;9.93;3.87;;;;;;;;;;5093456;28;20475;-55
2021/06/29 05:47:26;;;;;;;8.33;4.30;;;;;;;;;;5095108;28;20444;-58
2021/06/29 05:49:54;;;;;;;5.03;3.53;;;;;;;;;;5095232;28;20478;-54
2021/06/29 05:52:25;;;;;;;5.80;2.57;;;;;;;;;;5095809;28;20467;-57
2021/06/29 05:55:22;;;;;;;6.33;2.93;;;;;;;;;;5095248;28;20465;-55
2021/06/29 05:58:10;;;;;;;4.80;2.47;;;;;;;;;;5095508;28;20450;-61
2021/06/29 06:00:59;;;;;;;6.00;3.13;;;;;;;;;;5095166;28;20459;-53
2021/06/29 06:03:26;;;;;;;6.63;2.80;;;;;;;;;;5095519;28;20453;-58
2021/06/29 06:05:53;;;;;;;5.73;2.90;;;;;;;;;;5094815;28;20452;-59
2021/06/29 06:08:38;;;;;;;9.50;3.33;;;;;;;;;;5094361;28;20752;-59
2021/06/29 06:11:12;;;;;;;6.90;3.30;;;;;;;;;;5094824;28;20474;-57
2021/06/29 06:13:41;;;;;;;4.20;2.80;;;;;;;;;;5094389;28;20516;-57
2021/06/29 06:16:35;;;;;;;5.60;3.10;;;;;;;;;;5095653;28;20424;-59
2021/06/29 06:19:05;;;;;;;10.07;3.97;;;;;;;;;;5074764;28;20466;-53
2021/06/29 06:21:33;;;;;;;6.30;2.83;;;;;;;;;;5075004;28;20457;-54
2021/06/29 06:24:03;;;;;;;6.10;2.90;;;;;;;;;;5074647;28;20530;-53
2021/06/29 06:26:32;;;;;;;5.23;2.90;;;;;;;;;;5098563;28;20530;-58
2021/06/29 06:29:01;;;;;;;9.17;3.50;;;;;;;;;;5099091;28;20456;-57
2021/06/29 06:31:38;;;;;;;7.07;3.50;;;;;;;;;;5098777;28;20918;-54
2021/06/29 06:34:05;;;;;;;5.00;3.13;;;;;;;;;;5096875;28;20553;-53
2021/06/29 06:36:32;;;;;;;5.47;3.10;;;;;;;;;;5099100;28;20434;-56
2021/06/29 06:39:04;;;;;;;6.67;3.37;;;;;;;;;;5099177;28;20481;-60
2021/06/29 06:41:34;;;;;;;6.60;3.00;;;;;;;;;;5097525;28;20480;-57
2021/06/29 06:44:02;;;;;;;6.00;3.37;;;;;;;;;;5099064;28;20441;-59
2021/06/29 06:49:35;;;;;;;6.10;3.13;;;;;;;;;;5098930;28;20493;-59
2021/06/29 06:52:04;;;;;;;6.43;2.60;;;;;;;;;;5098926;28;20555;-53
2021/06/29 06:54:43;;;;;;;5.13;2.70;;;;;;;;;;5098894;28;20457;-57
2021/06/29 06:57:21;;;;;;;5.27;2.73;;;;;;;;;;5098746;28;20443;-58
2021/06/29 06:59:50;;;;;;;4.17;2.77;;;;;;;;;;5098521;28;20435;-58
2021/06/29 07:02:18;;;;;;;8.57;3.40;;;;;;;;;;5098501;28;20448;-54
2021/06/29 07:04:45;;;;;;;8.47;3.53;;;;;;;;;;5083470;28;20460;-55
2021/06/29 07:10:17;;;;;;;5.00;2.23;;;;;;;;;;5094953;28;20504;-59
2021/06/29 07:12:45;;;;;;;3.00;1.70;;;;;;;;;;5098733;28;20935;-60
2021/06/29 07:15:28;;;;;;;6.87;2.33;;;;;;;;;;5098299;28;20488;-53
2021/06/29 07:17:56;;;;;;;6.73;2.90;;;;;;;;;;5095942;28;20490;-57
2021/06/29 07:20:24;;;;;;;5.00;2.20;;;;;;;;;;5098105;28;20476;-59
2021/06/29 07:22:57;;;;;;;5.93;2.13;;;;;;;;;;5098007;28;20474;-52
2021/06/29 07:25:24;;;;;;;10.30;2.43;;;;;;;;;;5097650;28;20501;-58
2021/06/29 07:27:52;;;;;;;3.40;1.90;;;;;;;;;;5096957;28;20466;-52
2021/06/29 07:30:19;;;;;;;4.67;2.40;;;;;;;;;;5095528;28;20701;-59
2021/06/29 07:32:53;;;;;;;6.80;2.90;;;;;;;;;;5096777;28;20485;-60
2021/06/29 07:35:20;;;;;;;6.27;3.23;;;;;;;;;;5095981;28;20471;-59
2021/06/29 07:37:49;;;;;;;3.70;2.50;;;;;;;;;;5095610;28;20459;-56
2021/06/29 07:40:21;;;;;;;4.70;2.20;;;;;;;;;;5095878;28;20505;-58
2021/06/29 07:42:49;;;;;;;14.60;2.30;;;;;;;;;;5097974;28;20436;-56
2021/06/29 07:45:19;;;;;;;5.10;2.53;;;;;;;;;;5109406;28;20454;-56
2021/06/29 07:47:47;;;;;;;6.77;2.23;;;;;;;;;;5099157;28;20447;-56
2021/06/29 07:50:16;;;;;;;5.33;2.23;;;;;;;;;;5107226;28;20474;-56
2021/06/29 07:52:49;;;;;;;6.83;3.00;;;;;;;;;;5099463;28;20454;-59
2021/06/29 07:55:18;;;;;;;6.83;2.63;;;;;;;;;;5110478;28;20469;-60
2021/06/29 07:57:49;;;;;;;5.13;2.73;;;;;;;;;;5094466;28;20456;-59
2021/06/29 08:00:23;;;;;;;3.87;2.30;;;;;;;;;;5094268;28;20470;-55
2021/06/29 08:02:51;;;;;;;6.40;2.60;;;;;;;;;;5094642;28;20683;-52
2021/06/29 08:05:21;;;;;;;8.90;2.70;;;;;;;;;;5094216;28;20528;-56
2021/06/29 08:07:48;;;;;;;5.73;2.30;;;;;;;;;;5093745;28;20456;-54
2021/06/29 08:10:15;;;;;;;4.70;2.83;;;;;;;;;;5093386;28;20468;-55
2021/06/29 08:12:51;;;;;;;3.80;2.10;;;;;;;;;;5093875;28;20444;-61
2021/06/29 08:15:19;;;;;;;6.60;2.50;;;;;;;;;;5094394;28;20462;-54
2021/06/29 08:17:47;;;;;;;4.43;2.27;;;;;;;;;;5093366;28;20503;-56
2021/06/29 08:20:17;;;;;;;7.10;1.70;;;;;;;;;;5093835;28;20455;-60
2021/06/29 08:22:47;;;;;;;5.77;1.70;;;;;;;;;;5089228;28;20531;-56
2021/06/29 08:25:15;;;;;;;5.77;2.00;;;;;;;;;;5093856;28;20465;-60
2021/06/29 08:28:11;;;;;;;5.17;2.50;;;;;;;;;;5088726;28;20443;-59
2021/06/29 08:30:52;;;;;;;3.43;1.87;;;;;;;;;;5098751;28;20612;-55
2021/06/29 08:33:24;;;;;;;5.93;2.60;;;;;;;;;;5114869;28;20504;-56
2021/06/29 08:35:52;;;;;;;3.90;2.20;;;;;;;;;;5102469;28;20467;-59
2021/06/29 08:38:21;;;;;;;3.50;1.87;;;;;;;;;;5093976;28;20479;-60
2021/06/29 08:41:08;;;;;;;4.93;2.87;;;;;;;;;;5093305;28;20496;-57
2021/06/29 08:43:35;;;;;;;4.97;2.53;;;;;;;;;;5093257;28;20454;-59
2021/06/29 08:46:03;;;;;;;5.77;2.00;;;;;;;;;;5102614;28;20453;-58
2021/06/29 08:48:39;;;;;;;3.63;2.40;;;;;;;;;;5093341;28;20470;-58
2021/06/29 08:51:19;;;;;;;5.23;2.70;;;;;;;;;;5095975;28;20537;-60
2021/06/29 08:53:49;;;;;;;5.33;2.30;;;;;;;;;;5092821;28;20443;-56
2021/06/29 08:56:17;;;;;;;6.70;3.10;;;;;;;;;;5081850;28;20456;-56
2021/06/29 08:58:45;;;;;;;9.40;3.50;;;;;;;;;;5073462;28;20468;-58
2021/06/29 09:01:13;;;;;;;4.30;2.50;;;;;;;;;;5073339;28;20464;-60
2021/06/29 09:04:11;;;;;;;4.10;2.50;;;;;;;;;;5073303;28;20546;-60
2021/06/29 09:06:40;;;;;;;12.97;4.30;;;;;;;;;;5074477;28;20440;-57
2021/06/29 09:09:27;;;;;;;4.47;2.20;;;;;;;;;;5074545;28;20814;-63
2021/06/29 09:11:55;;;;;;;11.77;2.20;;;;;;;;;;5088275;28;20443;-59
2021/06/29 09:14:28;;;;;;;5.07;3.27;;;;;;;;;;5094003;28;20511;-61
2021/06/29 09:17:24;;;;;;;5.00;3.17;;;;;;;;;;5087278;28;20447;-61
2021/06/29 09:19:52;;;;;;;6.60;3.57;;;;;;;;;;5073159;28;20432;-58
2021/06/29 09:22:26;;;;;;;5.83;2.87;;;;;;;;;;5072924;28;20543;-58
2021/06/29 09:24:57;;;;;;;11.10;5.70;;;;;;;;;;5073888;28;20482;-56
2021/06/29 09:27:47;;;;;;;6.57;2.87;;;;;;;;;;5072633;28;20461;-58
2021/06/29 09:33:19;;;;;;;5.50;3.57;;;;;;;;;;5091559;28;20501;-59
2021/06/29 09:35:51;;;;;;;8.10;5.17;;;;;;;;;;5093539;28;20503;-59
2021/06/29 09:38:21;;;;;;;8.20;6.00;;;;;;;;;;5092820;28;20460;-51
2021/06/29 09:40:54;;;;;;;8.30;5.13;;;;;;;;;;5093762;28;20467;-53
2021/06/29 09:43:24;;;;;;;6.87;3.00;;;;;;;;;;5093681;28;20467;-58
2021/06/29 09:48:57;;;;;;;6.40;3.70;;;;;;;;;;5074928;28;20454;-58
2021/06/29 09:51:27;;;;;;;6.77;3.73;;;;;;;;;;5092576;28;20500;-58
2021/06/29 09:54:17;;;;;;;5.93;3.53;;;;;;;;;;5092620;28;20469;-57
2021/06/29 09:57:01;;;;;;;6.10;4.50;;;;;;;;;;5094015;28;20464;-57
2021/06/29 09:59:44;;;;;;;6.23;4.23;;;;;;;;;;5092059;28;20484;-57
2021/06/29 10:02:25;;;;;;;5.10;3.80;;;;;;;;;;5092131;28;20463;-57
2021/06/29 10:05:17;;;;;;;4.93;3.50;;;;;;;;;;5092569;28;20540;-58
2021/06/29 10:07:45;;;;;;;5.00;3.43;;;;;;;;;;5092467;28;20478;-55
2021/06/29 10:10:16;;;;;;;5.87;3.37;;;;;;;;;;5094756;28;20516;-55
2021/06/29 10:13:16;;;;;;;5.67;3.80;;;;;;;;;;5098608;28;20440;-61
2021/06/29 10:15:48;;;;;;;6.10;3.70;;;;;;;;;;5082587;28;20501;-58
2021/06/29 10:18:16;;;;;;;7.67;3.50;;;;;;;;;;5093597;28;20487;-56
2021/06/29 10:23:50;;;;;;;6.50;4.77;;;;;;;;;;5086139;28;20431;-59
2021/06/29 10:26:18;;;;;;;8.80;4.20;;;;;;;;;;5082379;28;20449;-53
2021/06/29 10:28:46;;;;;;;8.40;4.53;;;;;;;;;;5070691;28;20467;-60
2021/06/29 10:31:27;;;;;;;5.77;3.90;;;;;;;;;;5073988;28;20493;-60
2021/06/29 10:33:59;;;;;;;6.70;3.97;;;;;;;;;;5092313;28;20480;-59
2021/06/29 10:36:28;;;;;;;11.17;4.27;;;;;;;;;;5094314;28;20466;-57
2021/06/29 10:38:56;;;;;;;8.13;3.63;;;;;;;;;;5082361;28;20467;-56
2021/06/29 10:41:25;;;;;;;5.77;3.70;;;;;;;;;;5085331;28;20537;-58
2021/06/29 10:43:53;;;;;;;6.70;4.10;;;;;;;;;;5072218;28;20461;-63
2021/06/29 10:46:44;;;;;;;5.30;2.97;;;;;;;;;;5072247;28;20453;-60
2021/06/29 10:49:42;;;;;;;6.90;4.43;;;;;;;;;;4995847;28;20457;-54
2021/06/29 10:52:32;;;;;;;4.13;3.57;;;;;;;;;;4976905;28;20586;-57
2021/06/29 10:55:07;;;;;;;4.10;3.10;;;;;;;;;;5078824;28;20562;-59
2021/06/29 11:00:35;;;;;;;8.53;3.50;;;;;;;;;;5084355;28;20459;-60
2021/06/29 11:03:06;;;;;;;4.67;3.70;;;;;;;;;;5077117;28;20457;-59
2021/06/29 11:05:44;;;;;;;5.50;4.20;;;;;;;;;;5080431;28;20458;-61
2021/06/29 11:08:35;;;;;;;6.87;4.30;;;;;;;;;;5085665;28;20463;-62
2021/06/29 11:11:16;;;;;;;5.37;3.93;;;;;;;;;;5085567;28;20484;-58
2021/06/29 11:13:44;;;;;;;7.10;4.27;;;;;;;;;;5080585;28;20479;-58
2021/06/29 11:16:12;;;;;;;9.17;5.00;;;;;;;;;;5105242;28;20464;-54
2021/06/29 11:18:51;;;;;;;6.60;4.17;;;;;;;;;;5079663;28;20471;-58
2021/06/29 11:21:35;;;;;;;4.90;3.53;;;;;;;;;;5084774;28;20471;-59
2021/06/29 11:24:19;;;;;;;6.93;4.50;;;;;;;;;;5093572;28;20467;-57
2021/06/29 11:33:28;;;;;;;6.87;4.00;;;;;;;;;;5093398;28;20451;-50
2021/06/29 11:35:57;;;;;;;6.77;3.87;;;;;;;;;;5091156;28;20466;-59
2021/06/29 11:39:01;;;;;;;12.73;4.60;;;;;;;;;;5086997;28;20471;-59
2021/06/29 11:41:31;;;;;;;7.30;5.20;;;;;;;;;;5087470;28;20464;-59
2021/06/29 11:44:04;;;;;;;7.80;4.30;;;;;;;;;;5082102;28;20461;-54
2021/06/29 11:49:29;;;;;;;8.03;4.20;;;;;;;;;;5090285;28;20474;-57
2021/06/29 11:52:01;;;;;;;10.93;5.43;;;;;;;;;;5091123;28;20555;-58
2021/06/29 11:54:59;;;;;;;7.87;4.70;;;;;;;;;;5088165;28;20462;-58
2021/06/29 11:57:29;;;;;;;11.67;5.17;;;;;;;;;;5082341;28;20608;-62
2021/06/29 12:00:02;;;;;;;5.97;4.30;;;;;;;;;;5087959;28;20494;-58
2021/06/29 12:02:43;;;;;;;5.73;4.20;;;;;;;;;;5087464;28;20516;-62
2021/06/29 12:05:16;;;;;;;7.37;4.57;;;;;;;;;;5096621;28;20505;-59
2021/06/29 12:07:48;;;;;;;5.70;4.23;;;;;;;;;;5099189;28;20497;-56
2021/06/29 12:10:25;;;;;;;6.50;4.43;;;;;;;;;;5099097;28;20455;-60
2021/06/29 12:12:52;;;;;;;9.13;4.67;;;;;;;;;;5096619;28;20756;-60
2021/06/29 12:15:22;;;;;;;5.37;3.63;;;;;;;;;;5104059;28;20457;-61
2021/06/29 12:18:21;;;;;;;6.70;4.30;;;;;;;;;;5088887;28;20487;-58
2021/06/29 12:20:50;;;;;;;5.73;4.60;;;;;;;;;;5086099;28;20495;-58
2021/06/29 12:23:23;;;;;;;7.20;3.27;;;;;;;;;;5089633;28;20519;-62
2021/06/29 12:26:03;;;;;;;12.30;4.50;;;;;;;;;;5100711;28;20483;-62
2021/06/29 12:28:36;;;;;;;6.17;4.33;;;;;;;;;;5083453;28;20500;-65
2021/06/29 12:33:51;;;;;;;5.07;3.53;;;;;;;;;;5087860;28;20490;-58
2021/06/29 12:36:22;;;;;;;13.27;3.67;;;;;;;;;;5089300;28;20477;-58
2021/06/29 12:39:10;;;;;;;9.50;4.17;;;;;;;;;;5084280;28;20524;-59
2021/06/29 12:41:41;;;;;;;6.30;3.93;;;;;;;;;;5076449;28;20582;-61
2021/06/29 12:44:10;;;;;;;9.00;4.60;;;;;;;;;;5079092;28;20460;-61
2021/06/29 12:46:57;;;;;;;5.80;4.40;;;;;;;;;;5092069;28;20456;-59
2021/06/29 12:49:26;;;;;;;6.13;4.03;;;;;;;;;;5081280;28;20436;-60
2021/06/29 12:52:07;;;;;;;9.03;4.30;;;;;;;;;;5092248;28;20476;-60
2021/06/29 12:54:37;;;;;;;5.50;3.57;;;;;;;;;;5062039;28;20592;-60
2021/06/29 12:57:07;;;;;;;4.90;3.60;;;;;;;;;;5075123;28;20437;-59
2021/06/29 12:59:58;;;;;;;5.17;3.70;;;;;;;;;;5094192;28;20448;-60
2021/06/29 13:02:31;;;;;;;6.10;4.13;;;;;;;;;;5080375;28;20448;-56
2021/06/29 13:05:12;;;;;;;7.07;4.60;;;;;;;;;;5100391;28;20479;-55
2021/06/29 13:07:47;;;;;;;10.40;4.80;;;;;;;;;;5098374;28;20443;-58
2021/06/29 13:10:16;;;;;;;6.10;4.77;;;;;;;;;;5093728;28;20451;-56
2021/06/29 13:12:47;;;;;;;9.50;4.43;;;;;;;;;;5076693;28;20515;-58
2021/06/29 13:18:35;;;;;;;4.43;3.83;;;;;;;;;;5083079;28;20485;-59
2021/06/29 13:21:19;;;;;;;5.77;4.00;;;;;;;;;;5092300;28;20452;-55
2021/06/29 13:24:00;;;;;;;4.10;3.47;;;;;;;;;;5096903;28;20524;-58
2021/06/29 13:26:30;;;;;;;6.37;4.37;;;;;;;;;;5099506;28;20464;-60
2021/06/29 13:29:07;;;;;;;6.83;3.57;;;;;;;;;;5093354;28;20436;-56
2021/06/29 13:31:41;;;;;;;5.67;3.40;;;;;;;;;;5090750;28;20476;-58
2021/06/29 13:37:20;;;;;;;5.23;4.40;;;;;;;;;;5088878;28;20571;-60
2021/06/29 13:39:56;;;;;;;6.60;4.70;;;;;;;;;;5093260;28;20452;-57
2021/06/29 13:42:24;;;;;;;4.60;3.87;;;;;;;;;;5098875;28;20463;-56
2021/06/29 13:47:54;;;;;;;5.87;4.73;;;;;;;;;;5072088;28;20453;-59
2021/06/29 13:50:22;;;;;;;5.70;4.77;;;;;;;;;;5070601;28;20453;-55
2021/06/29 13:52:58;;;;;;;7.50;5.20;;;;;;;;;;5079207;28;20483;-59
2021/06/29 13:55:26;;;;;;;6.00;5.10;;;;;;;;;;5109687;28;20532;-57
2021/06/29 13:57:54;;;;;;;9.50;6.30;;;;;;;;;;5094651;28;20464;-56
2021/06/29 14:00:28;;;;;;;7.80;6.17;;;;;;;;;;5080553;28;20506;-53
2021/06/29 14:03:08;;;;;;;6.90;6.20;;;;;;;;;;5092103;28;20483;-60
2021/06/29 14:05:36;;;;;;;9.23;7.90;;;;;;;;;;5080970;28;20479;-55
2021/06/29 14:08:25;;;;;;;11.20;6.90;;;;;;;;;;5090331;28;20460;-54
2021/06/29 14:11:08;;;;;;;11.00;6.63;;;;;;;;;;5105167;28;20439;-54
2021/06/29 14:13:38;;;;;;;7.73;6.30;;;;;;;;;;5094951;28;20442;-59
2021/06/29 14:16:08;;;;;;;9.80;7.30;;;;;;;;;;5078906;28;20459;-60
2021/06/29 14:18:35;;;;;;;7.83;6.67;;;;;;;;;;5078422;28;20547;-57
2021/06/29 14:21:14;;;;;;;10.03;6.30;;;;;;;;;;5084484;28;20473;-58
2021/06/29 14:23:46;;;;;;;5.87;5.17;;;;;;;;;;5089490;28;20474;-59
2021/06/29 14:26:15;;;;;;;6.60;5.10;;;;;;;;;;5094426;28;20507;-56
2021/06/29 14:28:45;;;;;;;6.80;5.60;;;;;;;;;;5090543;28;20636;-55
2021/06/29 14:31:37;;;;;;;6.30;5.37;;;;;;;;;;5072659;28;20463;-64
2021/06/29 14:34:08;;;;;;;5.90;5.13;;;;;;;;;;5072451;28;20437;-60
2021/06/29 14:36:37;;;;;;;6.63;5.07;;;;;;;;;;5085092;28;20460;-59
2021/06/29 14:39:23;;;;;;;7.13;5.43;;;;;;;;;;5084528;28;20471;-57
2021/06/29 14:41:53;;;;;;;6.90;4.60;;;;;;;;;;5090372;28;20502;-59
2021/06/29 14:44:21;;;;;;;6.13;5.23;;;;;;;;;;5092307;28;20456;-57
2021/06/29 14:46:49;;;;;;;5.93;5.07;;;;;;;;;;5094911;28;20730;-57
2021/06/29 14:49:21;;;;;;;6.90;5.33;;;;;;;;;;5085497;28;20472;-53
2021/06/29 14:51:56;;;;;;;7.80;5.03;;;;;;;;;;5095605;28;20468;-58
2021/06/29 14:54:27;;;;;;;8.67;6.00;;;;;;;;;;5087250;28;20470;-61
2021/06/29 14:56:54;;;;;;;6.23;5.47;;;;;;;;;;5100629;28;20458;-59
2021/06/29 14:59:39;;;;;;;7.13;6.20;;;;;;;;;;5097799;28;20460;-60
2021/06/29 15:02:11;;;;;;;8.07;5.60;;;;;;;;;;5078294;28;20559;-63
2021/06/29 15:04:45;;;;;;;9.17;5.33;;;;;;;;;;5096587;28;20469;-57
2021/06/29 15:07:23;;;;;;;7.40;4.93;;;;;;;;;;5063720;28;20455;-55
2021/06/29 15:10:07;;;;;;;8.20;4.83;;;;;;;;;;5077729;28;20473;-61
2021/06/29 15:12:51;;;;;;;4.87;3.70;;;;;;;;;;5083989;28;20460;-58
2021/06/29 15:15:23;;;;;;;12.13;5.20;;;;;;;;;;5085247;28;20459;-59
2021/06/29 15:17:52;;;;;;;6.90;5.40;;;;;;;;;;5077895;28;20460;-57
2021/06/29 15:20:26;;;;;;;6.47;4.43;;;;;;;;;;5100734;28;20466;-57
2021/06/29 15:22:55;;;;;;;9.10;6.40;;;;;;;;;;5090986;28;20480;-64
2021/06/29 15:25:45;;;;;;;7.93;6.43;;;;;;;;;;5090995;28;20463;-60
2021/06/29 15:31:36;;;;;;;6.10;3.93;;;;;;;;;;5075754;28;20462;-60
2021/06/29 15:34:09;;;;;;;5.33;3.90;;;;;;;;;;5098944;28;20536;-62
2021/06/29 15:36:42;;;;;;;5.27;3.70;;;;;;;;;;5058842;28;20475;-60
2021/06/29 15:39:24;;;;;;;4.60;3.40;;;;;;;;;;5097285;28;20487;-61
2021/06/29 15:41:51;;;;;;;5.53;4.17;;;;;;;;;;5096206;28;20495;-58
2021/06/29 15:44:23;;;;;;;7.00;4.97;;;;;;;;;;5079906;28;20491;-59
2021/06/29 15:46:52;;;;;;;8.80;6.03;;;;;;;;;;5099211;28;20486;-54
2021/06/29 15:49:36;;;;;;;8.80;5.17;;;;;;;;;;5095172;28;20460;-60
2021/06/29 15:52:23;;;;;;;8.50;5.53;;;;;;;;;;5091503;28;20495;-57
2021/06/29 15:54:51;;;;;;;6.50;5.00;;;;;;;;;;5074625;28;20485;-59
2021/06/29 15:57:22;;;;;;;5.90;3.50;;;;;;;;;;5073926;28;20437;-55
2021/06/29 15:59:58;;;;;;;5.03;3.50;;;;;;;;;;5074728;28;20446;-61
2021/06/29 16:02:52;;;;;;;8.20;5.00;;;;;;;;;;5094082;28;20543;-57
2021/06/29 16:05:19;;;;;;;8.90;5.30;;;;;;;;;;5109256;28;20506;-56
2021/06/29 16:07:48;;;;;;;12.03;5.53;;;;;;;;;;5114358;28;20443;-56